createdAt,value
2018-09-23T00:00:32.699Z,11.00
2018-09-23T00:01:36.269Z,11.10
2018-09-23T00:02:39.818Z,11.20
2018-09-23T00:03:43.413Z,11.20
2018-09-23T00:04:47.045Z,11.20
2018-09-23T00:05:50.822Z,11.20
2018-09-23T00:06:55.152Z,11.20
2018-09-23T00:07:58.708Z,11.40
2018-09-23T00:09:02.875Z,11.50
2018-09-23T00:10:07.075Z,11.40
2018-09-23T00:11:10.830Z,11.40
2018-09-23T00:12:15.308Z,11.30
2018-09-23T00:13:20.496Z,11.30
2018-09-23T00:14:24.701Z,11.30
2018-09-23T00:15:28.388Z,11.40
2018-09-23T00:16:31.994Z,11.30
2018-09-23T00:17:35.538Z,11.40
2018-09-23T00:18:39.160Z,11.40
2018-09-23T00:19:42.788Z,11.40
2018-09-23T00:20:46.302Z,11.30
2018-09-23T00:21:50.893Z,11.40
2018-09-23T00:22:54.940Z,11.30
2018-09-23T00:23:58.771Z,11.20
2018-09-23T00:25:02.818Z,11.10
2018-09-23T00:26:06.530Z,11.10
2018-09-23T00:27:10.123Z,11.10
2018-09-23T00:28:13.705Z,11.20
2018-09-23T00:29:22.327Z,11.30
2018-09-23T00:30:26.033Z,11.40
2018-09-23T00:31:29.547Z,11.30
2018-09-23T00:32:33.167Z,11.40
2018-09-23T00:33:37.262Z,11.40
2018-09-23T00:34:40.879Z,11.60
2018-09-23T00:35:44.494Z,11.60
2018-09-23T00:36:48.717Z,11.70
2018-09-23T00:37:52.243Z,11.80
2018-09-23T00:38:56.487Z,11.70
2018-09-23T00:40:00.100Z,11.60
2018-09-23T00:41:03.740Z,11.90
2018-09-23T00:42:08.054Z,12.00
2018-09-23T00:43:12.264Z,11.90
2018-09-23T00:44:15.850Z,11.90
2018-09-23T00:45:20.003Z,11.90
2018-09-23T00:46:23.712Z,11.70
2018-09-23T00:47:27.279Z,11.60
2018-09-23T00:48:30.834Z,11.50
2018-09-23T00:49:34.406Z,11.50
2018-09-23T00:50:37.957Z,11.60
2018-09-23T00:51:41.496Z,12.10
2018-09-23T00:52:45.312Z,12.10
2018-09-23T00:53:49.378Z,12.10
2018-09-23T00:54:53.034Z,12.30
2018-09-23T00:55:57.561Z,12.30
2018-09-23T00:57:01.081Z,12.10
2018-09-23T00:58:04.613Z,12.10
2018-09-23T00:59:08.906Z,12.00
2018-09-23T01:00:12.510Z,11.90
2018-09-23T01:01:16.138Z,11.90
2018-09-23T01:02:19.696Z,11.90
2018-09-23T01:03:23.261Z,12.00
2018-09-23T01:04:26.938Z,12.10
2018-09-23T01:05:30.627Z,12.30
2018-09-23T01:06:34.276Z,12.40
2018-09-23T01:07:38.006Z,12.30
2018-09-23T01:08:41.750Z,12.30
2018-09-23T01:09:45.362Z,12.40
2018-09-23T01:10:48.874Z,12.20
2018-09-23T01:11:52.534Z,12.10
2018-09-23T01:12:56.789Z,12.00
2018-09-23T01:14:01.200Z,12.00
2018-09-23T01:15:06.363Z,12.20
2018-09-23T01:16:10.554Z,12.30
2018-09-23T01:17:14.991Z,12.20
2018-09-23T01:18:18.547Z,12.10
2018-09-23T01:19:22.958Z,11.90
2018-09-23T01:20:26.507Z,11.70
2018-09-23T01:21:30.174Z,11.60
2018-09-23T01:22:33.895Z,11.60
2018-09-23T01:23:37.405Z,11.80
2018-09-23T01:24:40.965Z,11.70
2018-09-23T01:25:44.602Z,12.00
2018-09-23T01:26:48.192Z,12.30
2018-09-23T01:27:51.955Z,12.30
2018-09-23T01:28:55.502Z,12.20
2018-09-23T01:29:59.112Z,12.20
2018-09-23T01:31:03.085Z,12.20
2018-09-23T01:32:06.572Z,12.40
2018-09-23T01:33:10.263Z,12.40
2018-09-23T01:34:13.980Z,12.30
2018-09-23T01:35:17.604Z,12.30
2018-09-23T01:36:21.113Z,12.30
2018-09-23T01:37:24.819Z,12.20
2018-09-23T01:38:28.843Z,12.30
2018-09-23T01:39:32.404Z,12.30
2018-09-23T01:40:35.934Z,12.30
2018-09-23T01:41:39.507Z,12.50
2018-09-23T01:42:43.401Z,12.90
2018-09-23T01:43:47.066Z,12.80
2018-09-23T01:44:50.646Z,12.90
2018-09-23T01:45:54.183Z,12.90
2018-09-23T01:46:57.764Z,12.80
2018-09-23T01:48:01.885Z,12.70
2018-09-23T01:49:06.172Z,12.80
2018-09-23T01:50:10.311Z,13.00
2018-09-23T01:51:13.874Z,13.00
2018-09-23T01:52:17.349Z,13.20
2018-09-23T01:53:21.983Z,13.20
2018-09-23T01:54:25.576Z,13.00
2018-09-23T01:55:29.807Z,12.90
2018-09-23T01:56:33.391Z,12.70
2018-09-23T01:57:37.053Z,12.70
2018-09-23T01:58:41.198Z,12.50
2018-09-23T01:59:44.858Z,12.50
2018-09-23T02:00:48.389Z,12.40
2018-09-23T02:01:52.483Z,12.20
2018-09-23T02:02:56.335Z,12.10
2018-09-23T02:03:59.942Z,12.00
2018-09-23T02:05:04.141Z,11.80
2018-09-23T02:06:07.720Z,11.70
2018-09-23T02:07:12.192Z,11.80
2018-09-23T02:08:15.858Z,11.70
2018-09-23T02:09:19.973Z,11.70
2018-09-23T02:10:23.712Z,11.70
2018-09-23T02:11:27.269Z,11.80
2018-09-23T02:12:30.778Z,11.80
2018-09-23T02:13:34.621Z,11.90
2018-09-23T02:14:38.221Z,11.90
2018-09-23T02:15:42.014Z,11.80
2018-09-23T02:16:45.562Z,11.70
2018-09-23T02:17:49.098Z,11.70
2018-09-23T02:18:53.166Z,11.60
2018-09-23T02:19:56.684Z,11.60
2018-09-23T02:21:00.653Z,11.50
2018-09-23T02:22:04.298Z,11.40
2018-09-23T02:23:08.555Z,11.30
2018-09-23T02:24:12.292Z,11.20
2018-09-23T02:25:15.837Z,11.20
2018-09-23T02:26:19.329Z,11.30
2018-09-23T02:27:23.147Z,11.20
2018-09-23T02:29:29.804Z,11.20
2018-09-23T02:30:33.335Z,11.20
2018-09-23T02:31:37.068Z,11.10
2018-09-23T02:32:40.669Z,11.00
2018-09-23T02:33:44.449Z,11.00
2018-09-23T02:34:48.047Z,11.00
2018-09-23T02:35:51.956Z,10.90
2018-09-23T02:36:55.518Z,10.90
2018-09-23T02:37:59.042Z,10.90
2018-09-23T02:39:02.649Z,10.90
2018-09-23T02:40:06.449Z,11.20
2018-09-23T02:41:10.084Z,11.30
2018-09-23T02:42:14.159Z,11.20
2018-09-23T02:43:17.811Z,11.20
2018-09-23T02:44:21.366Z,11.10
2018-09-23T02:45:24.953Z,11.00
2018-09-23T02:46:28.550Z,11.00
2018-09-23T02:47:32.205Z,10.90
2018-09-23T02:48:35.755Z,10.90
2018-09-23T02:49:39.272Z,10.80
2018-09-23T02:50:42.848Z,10.70
2018-09-23T02:51:46.526Z,10.70
2018-09-23T02:52:50.798Z,10.70
2018-09-23T02:53:54.558Z,10.70
2018-09-23T02:54:58.110Z,10.70
2018-09-23T02:56:01.633Z,10.70
2018-09-23T02:57:05.501Z,10.80
2018-09-23T02:58:09.868Z,10.80
2018-09-23T02:59:14.294Z,10.80
2018-09-23T03:00:17.987Z,10.70
2018-09-23T03:01:21.990Z,10.70
2018-09-23T03:02:25.535Z,10.60
2018-09-23T03:03:29.229Z,10.60
2018-09-23T03:04:32.913Z,10.60
2018-09-23T03:05:36.503Z,10.50
2018-09-23T03:06:40.088Z,10.50
2018-09-23T03:07:44.273Z,10.50
2018-09-23T03:08:48.655Z,10.50
2018-09-23T03:09:52.325Z,10.50
2018-09-23T03:10:55.873Z,10.50
2018-09-23T03:11:59.512Z,10.40
2018-09-23T03:13:03.042Z,10.50
2018-09-23T03:14:06.778Z,10.50
2018-09-23T03:15:11.651Z,10.50
2018-09-23T03:16:15.713Z,10.50
2018-09-23T03:17:19.476Z,10.50
2018-09-23T03:18:23.232Z,10.50
2018-09-23T03:19:27.207Z,10.60
2018-09-23T03:20:30.817Z,10.50
2018-09-23T03:21:35.331Z,10.50
2018-09-23T03:22:39.025Z,10.50
2018-09-23T03:23:43.315Z,10.50
2018-09-23T03:24:48.162Z,10.50
2018-09-23T03:25:53.076Z,10.50
2018-09-23T03:26:57.547Z,10.40
2018-09-23T03:28:01.203Z,10.40
2018-09-23T03:29:05.600Z,10.40
2018-09-23T03:30:10.400Z,10.40
2018-09-23T03:31:14.768Z,10.30
2018-09-23T03:32:19.209Z,10.30
2018-09-23T03:33:24.201Z,10.40
2018-09-23T03:34:28.824Z,10.30
2018-09-23T03:35:32.516Z,10.40
2018-09-23T03:36:36.790Z,10.40
2018-09-23T03:37:41.506Z,10.40
2018-09-23T03:38:46.001Z,10.30
2018-09-23T03:40:54.027Z,10.40
2018-09-23T03:41:57.785Z,10.30
2018-09-23T03:43:02.614Z,10.40
2018-09-23T03:44:06.555Z,10.40
2018-09-23T03:45:11.227Z,10.40
2018-09-23T03:46:15.202Z,10.40
2018-09-23T03:47:19.099Z,10.40
2018-09-23T03:48:23.007Z,10.40
2018-09-23T03:49:26.710Z,10.40
2018-09-23T03:50:30.397Z,10.40
2018-09-23T03:51:34.433Z,10.50
2018-09-23T03:52:38.122Z,10.40
2018-09-23T03:53:42.413Z,10.50
2018-09-23T03:54:46.481Z,10.40
2018-09-23T03:55:50.723Z,10.40
2018-09-23T03:56:54.587Z,10.40
2018-09-23T03:57:58.671Z,10.40
2018-09-23T03:59:02.329Z,10.40
2018-09-23T04:00:06.953Z,10.40
2018-09-23T04:01:12.316Z,10.40
2018-09-23T04:02:16.088Z,10.40
2018-09-23T04:03:19.975Z,10.30
2018-09-23T04:04:24.327Z,10.30
2018-09-23T04:05:27.973Z,10.30
2018-09-23T04:06:31.654Z,10.30
2018-09-23T04:07:35.490Z,10.20
2018-09-23T04:08:39.193Z,10.20
2018-09-23T04:09:42.869Z,10.20
2018-09-23T04:10:46.654Z,10.10
2018-09-23T04:11:50.900Z,10.20
2018-09-23T04:12:54.587Z,10.20
2018-09-23T04:13:58.404Z,10.10
2018-09-23T04:15:02.803Z,10.10
2018-09-23T04:16:06.547Z,10.10
2018-09-23T04:17:10.484Z,10.00
2018-09-23T04:18:14.153Z,10.10
2018-09-23T04:19:18.429Z,10.00
2018-09-23T04:20:22.315Z,10.00
2018-09-23T04:21:26.107Z,10.00
2018-09-23T04:22:29.699Z,10.00
2018-09-23T04:23:33.331Z,10.00
2018-09-23T04:24:36.936Z,10.00
2018-09-23T04:25:40.688Z,10.00
2018-09-23T04:26:45.003Z,10.10
2018-09-23T04:27:49.737Z,10.10
2018-09-23T04:28:53.331Z,10.10
2018-09-23T04:29:57.225Z,10.10
2018-09-23T04:31:00.879Z,10.10
2018-09-23T04:32:04.501Z,10.10
2018-09-23T04:33:08.166Z,10.10
2018-09-23T04:34:13.020Z,10.20
2018-09-23T04:35:17.399Z,10.20
2018-09-23T04:36:21.156Z,10.10
2018-09-23T04:37:25.302Z,10.20
2018-09-23T04:38:29.058Z,10.20
2018-09-23T04:39:32.821Z,10.20
2018-09-23T04:40:36.584Z,10.20
2018-09-23T04:41:40.202Z,10.20
2018-09-23T04:42:44.615Z,10.20
2018-09-23T04:43:48.087Z,10.10
2018-09-23T04:44:51.687Z,10.10
2018-09-23T04:45:55.399Z,10.10
2018-09-23T04:46:59.026Z,10.10
2018-09-23T04:48:02.637Z,10.10
2018-09-23T04:49:06.515Z,10.20
2018-09-23T04:50:10.111Z,10.10
2018-09-23T04:51:13.780Z,10.20
2018-09-23T04:52:18.064Z,10.10
2018-09-23T04:53:21.691Z,10.20
2018-09-23T04:54:25.266Z,10.20
2018-09-23T04:55:28.848Z,10.10
2018-09-23T04:56:32.369Z,10.10
2018-09-23T04:57:35.866Z,10.10
2018-09-23T04:58:39.464Z,10.10
2018-09-23T04:59:43.033Z,10.20
2018-09-23T05:00:46.590Z,10.10
2018-09-23T05:01:50.161Z,10.10
2018-09-23T05:02:53.669Z,10.10
2018-09-23T05:03:57.956Z,10.10
2018-09-23T05:05:01.553Z,10.10
2018-09-23T05:06:05.472Z,10.10
2018-09-23T05:07:08.975Z,10.10
2018-09-23T05:08:13.229Z,10.10
2018-09-23T05:09:16.835Z,10.10
2018-09-23T05:10:20.532Z,10.10
2018-09-23T05:11:24.327Z,10.10
2018-09-23T05:12:27.966Z,10.10
2018-09-23T05:13:31.529Z,10.10
2018-09-23T05:14:35.207Z,10.10
2018-09-23T05:15:39.403Z,10.00
2018-09-23T05:16:42.989Z,10.10
2018-09-23T05:17:46.574Z,10.10
2018-09-23T05:18:51.079Z,10.10
2018-09-23T05:19:54.846Z,10.10
2018-09-23T05:20:58.424Z,10.10
2018-09-23T05:22:02.345Z,10.10
2018-09-23T05:23:06.277Z,10.10
2018-09-23T05:24:09.830Z,10.10
2018-09-23T05:25:14.371Z,10.00
2018-09-23T05:26:18.072Z,10.10
2018-09-23T05:27:21.717Z,10.10
2018-09-23T05:28:25.335Z,10.20
2018-09-23T05:29:29.054Z,10.20
2018-09-23T05:30:32.672Z,10.20
2018-09-23T05:31:36.180Z,10.20
2018-09-23T05:32:39.800Z,10.20
2018-09-23T05:33:43.424Z,10.20
2018-09-23T05:34:46.928Z,10.20
2018-09-23T05:35:51.380Z,10.10
2018-09-23T05:36:54.968Z,10.10
2018-09-23T05:37:59.341Z,10.10
2018-09-23T05:39:02.987Z,10.10
2018-09-23T05:40:07.794Z,10.20
2018-09-23T05:41:11.643Z,10.20
2018-09-23T05:42:15.234Z,10.20
2018-09-23T05:43:19.429Z,10.20
2018-09-23T05:44:23.044Z,10.20
2018-09-23T05:45:27.954Z,10.20
2018-09-23T05:46:31.665Z,10.20
2018-09-23T05:47:35.248Z,10.20
2018-09-23T05:48:39.251Z,10.20
2018-09-23T05:49:42.779Z,10.20
2018-09-23T05:50:46.313Z,10.20
2018-09-23T05:51:49.851Z,10.20
2018-09-23T05:52:53.714Z,10.20
2018-09-23T05:53:57.351Z,10.20
2018-09-23T05:55:01.038Z,10.20
2018-09-23T05:56:04.662Z,10.20
2018-09-23T05:57:08.179Z,10.20
2018-09-23T05:58:11.884Z,10.20
2018-09-23T05:59:15.536Z,10.30
2018-09-23T06:00:19.238Z,10.30
2018-09-23T06:01:22.941Z,10.30
2018-09-23T06:02:26.844Z,10.40
2018-09-23T06:03:30.641Z,10.40
2018-09-23T06:04:34.997Z,10.40
2018-09-23T06:05:38.639Z,10.40
2018-09-23T06:06:42.329Z,10.40
2018-09-23T06:07:45.982Z,10.40
2018-09-23T06:08:49.735Z,10.40
2018-09-23T06:09:53.346Z,10.40
2018-09-23T06:10:56.974Z,10.40
2018-09-23T06:12:00.575Z,10.40
2018-09-23T06:13:04.180Z,10.50
2018-09-23T06:14:07.834Z,10.50
2018-09-23T06:15:11.559Z,10.50
2018-09-23T06:16:15.223Z,10.50
2018-09-23T06:17:18.953Z,10.50
2018-09-23T06:18:22.562Z,10.50
2018-09-23T06:19:26.114Z,10.50
2018-09-23T06:20:29.792Z,10.50
2018-09-23T06:21:33.551Z,10.60
2018-09-23T06:22:37.209Z,10.60
2018-09-23T06:23:41.265Z,10.60
2018-09-23T06:24:44.867Z,10.60
2018-09-23T06:25:48.443Z,10.60
2018-09-23T06:26:52.052Z,10.60
2018-09-23T06:27:55.629Z,10.60
2018-09-23T06:28:59.230Z,10.60
2018-09-23T06:30:02.870Z,10.60
2018-09-23T06:31:06.651Z,10.60
2018-09-23T06:32:10.299Z,10.60
2018-09-23T06:33:13.976Z,10.60
2018-09-23T06:34:17.598Z,10.60
2018-09-23T06:35:21.172Z,10.60
2018-09-23T06:36:24.937Z,10.60
2018-09-23T06:37:28.697Z,10.60
2018-09-23T06:38:32.321Z,10.60
2018-09-23T06:39:35.973Z,10.70
2018-09-23T06:40:39.507Z,10.60
2018-09-23T06:41:44.032Z,10.60
2018-09-23T06:42:47.616Z,10.60
2018-09-23T06:43:51.256Z,10.60
2018-09-23T06:44:54.786Z,10.60
2018-09-23T06:45:58.578Z,10.50
2018-09-23T06:47:02.215Z,10.60
2018-09-23T06:48:05.860Z,10.60
2018-09-23T06:49:09.670Z,10.70
2018-09-23T06:50:14.107Z,10.70
2018-09-23T06:51:17.786Z,10.70
2018-09-23T06:52:21.402Z,10.70
2018-09-23T06:53:25.087Z,10.70
2018-09-23T06:54:28.736Z,10.70
2018-09-23T06:55:33.697Z,10.70
2018-09-23T06:56:37.630Z,10.70
2018-09-23T06:57:41.169Z,10.80
2018-09-23T06:58:44.753Z,10.70
2018-09-23T06:59:49.089Z,10.70
2018-09-23T07:00:52.663Z,10.70
2018-09-23T07:01:56.165Z,10.70
2018-09-23T07:02:59.836Z,10.80
2018-09-23T07:04:03.393Z,10.80
2018-09-23T07:05:07.077Z,10.80
2018-09-23T07:06:10.608Z,10.80
2018-09-23T07:07:14.192Z,10.90
2018-09-23T07:08:17.891Z,10.90
2018-09-23T07:09:21.455Z,10.90
2018-09-23T07:10:25.106Z,10.90
2018-09-23T07:11:29.008Z,10.90
2018-09-23T07:12:32.572Z,10.90
2018-09-23T07:13:36.063Z,10.90
2018-09-23T07:14:39.740Z,10.90
2018-09-23T07:15:43.257Z,10.90
2018-09-23T07:16:46.780Z,10.90
2018-09-23T07:17:50.394Z,10.90
2018-09-23T07:18:54.895Z,10.90
2018-09-23T07:19:58.469Z,11.00
2018-09-23T07:21:02.093Z,11.00
2018-09-23T07:22:05.610Z,11.00
2018-09-23T07:23:09.193Z,11.00
2018-09-23T07:24:12.817Z,11.00
2018-09-23T07:25:16.457Z,11.00
2018-09-23T07:26:19.975Z,11.00
2018-09-23T07:27:23.983Z,10.90
2018-09-23T07:28:28.108Z,11.00
2018-09-23T07:29:31.935Z,11.00
2018-09-23T07:30:35.728Z,11.00
2018-09-23T07:31:39.376Z,10.90
2018-09-23T07:32:42.926Z,11.00
2018-09-23T07:33:46.440Z,11.00
2018-09-23T07:34:50.069Z,11.00
2018-09-23T07:35:53.655Z,11.10
2018-09-23T07:36:57.357Z,11.10
2018-09-23T07:38:00.948Z,11.10
2018-09-23T07:39:05.991Z,11.10
2018-09-23T07:40:09.682Z,11.10
2018-09-23T07:41:13.583Z,11.20
2018-09-23T07:42:17.268Z,11.20
2018-09-23T07:43:20.831Z,11.20
2018-09-23T07:44:24.345Z,11.20
2018-09-23T07:45:28.127Z,11.20
2018-09-23T07:46:32.551Z,11.20
2018-09-23T07:47:36.968Z,11.20
2018-09-23T07:48:40.472Z,11.20
2018-09-23T07:49:44.454Z,11.30
2018-09-23T07:50:48.174Z,11.30
2018-09-23T07:51:51.734Z,11.30
2018-09-23T07:52:55.668Z,11.30
2018-09-23T07:53:59.281Z,11.40
2018-09-23T07:55:02.905Z,11.40
2018-09-23T07:56:06.539Z,11.40
2018-09-23T07:57:10.120Z,11.40
2018-09-23T07:58:13.745Z,11.40
2018-09-23T07:59:17.324Z,11.40
2018-09-23T08:00:21.416Z,11.40
2018-09-23T08:01:25.086Z,11.40
2018-09-23T08:02:28.792Z,11.50
2018-09-23T08:03:32.628Z,11.50
2018-09-23T08:04:36.378Z,11.60
2018-09-23T08:05:39.986Z,11.60
2018-09-23T08:06:43.902Z,11.70
2018-09-23T08:07:47.804Z,11.80
2018-09-23T08:08:51.350Z,11.80
2018-09-23T08:09:54.946Z,11.80
2018-09-23T08:10:58.592Z,11.90
2018-09-23T08:12:02.156Z,12.00
2018-09-23T08:13:05.952Z,12.00
2018-09-23T08:14:10.659Z,12.00
2018-09-23T08:15:13.983Z,12.00
2018-09-23T08:16:17.584Z,12.00
2018-09-23T08:17:21.264Z,11.90
2018-09-23T08:18:24.781Z,11.90
2018-09-23T08:19:28.425Z,11.90
2018-09-23T08:20:32.141Z,12.00
2018-09-23T08:21:35.913Z,12.00
2018-09-23T08:22:39.821Z,12.00
2018-09-23T08:23:44.139Z,12.00
2018-09-23T08:24:47.981Z,12.10
2018-09-23T08:25:52.062Z,12.10
2018-09-23T08:26:55.640Z,12.10
2018-09-23T08:27:59.449Z,12.10
2018-09-23T08:29:03.135Z,12.00
2018-09-23T08:30:06.988Z,12.10
2018-09-23T08:31:10.578Z,12.00
2018-09-23T08:32:14.148Z,12.00
2018-09-23T08:33:17.805Z,12.00
2018-09-23T08:34:21.707Z,12.10
2018-09-23T08:35:25.394Z,12.10
2018-09-23T08:36:28.974Z,12.00
2018-09-23T08:37:32.616Z,12.10
2018-09-23T08:38:37.669Z,12.10
2018-09-23T08:39:41.240Z,12.20
2018-09-23T08:40:44.804Z,12.20
2018-09-23T08:41:48.415Z,12.20
2018-09-23T08:42:52.196Z,12.30
2018-09-23T08:43:56.091Z,12.30
2018-09-23T08:44:59.781Z,12.30
2018-09-23T08:46:03.536Z,12.30
2018-09-23T08:47:07.046Z,12.30
2018-09-23T08:48:11.716Z,12.30
2018-09-23T08:49:15.365Z,12.30
2018-09-23T08:50:18.895Z,12.30
2018-09-23T08:51:22.766Z,12.30
2018-09-23T08:52:26.489Z,12.30
2018-09-23T08:53:30.646Z,12.30
2018-09-23T08:54:34.308Z,12.20
2018-09-23T08:55:37.885Z,12.20
2018-09-23T08:56:41.591Z,12.20
2018-09-23T08:57:45.357Z,12.10
2018-09-23T08:58:48.985Z,12.10
2018-09-23T08:59:52.785Z,12.10
2018-09-23T09:00:57.706Z,12.00
2018-09-23T09:02:01.400Z,12.00
2018-09-23T09:03:05.318Z,12.00
2018-09-23T09:04:08.938Z,12.00
2018-09-23T09:05:12.544Z,12.00
2018-09-23T09:06:16.117Z,12.00
2018-09-23T09:07:19.794Z,12.00
2018-09-23T09:08:23.411Z,12.00
2018-09-23T09:09:27.370Z,12.00
2018-09-23T09:10:30.925Z,12.00
2018-09-23T09:11:34.830Z,11.90
2018-09-23T09:12:38.451Z,11.80
2018-09-23T09:13:42.259Z,11.80
2018-09-23T09:14:45.841Z,11.70
2018-09-23T09:15:49.577Z,11.60
2018-09-23T09:16:53.118Z,11.60
2018-09-23T09:17:57.382Z,11.60
2018-09-23T09:19:01.029Z,11.60
2018-09-23T09:20:04.817Z,11.50
2018-09-23T09:21:08.402Z,11.60
2018-09-23T09:22:13.090Z,11.50
2018-09-23T09:23:16.778Z,11.50
2018-09-23T09:24:20.612Z,11.50
2018-09-23T09:25:24.231Z,11.50
2018-09-23T09:26:27.849Z,11.50
2018-09-23T09:27:31.413Z,11.40
2018-09-23T09:28:34.999Z,11.40
2018-09-23T09:29:38.690Z,11.40
2018-09-23T09:30:42.338Z,11.40
2018-09-23T09:31:45.892Z,11.40
2018-09-23T09:32:49.424Z,11.40
2018-09-23T09:33:53.045Z,11.40
2018-09-23T09:34:56.841Z,11.50
2018-09-23T09:36:00.562Z,11.40
2018-09-23T09:37:04.378Z,11.40
2018-09-23T09:38:07.977Z,11.40
2018-09-23T09:39:12.208Z,11.50
2018-09-23T09:40:16.025Z,11.50
2018-09-23T09:41:20.572Z,11.50
2018-09-23T09:42:24.348Z,11.60
2018-09-23T09:43:27.982Z,11.60
2018-09-23T09:44:31.643Z,11.60
2018-09-23T09:45:35.210Z,11.60
2018-09-23T09:46:38.845Z,11.60
2018-09-23T09:47:42.472Z,11.60
2018-09-23T09:48:46.169Z,11.60
2018-09-23T09:49:49.855Z,11.70
2018-09-23T09:50:53.473Z,11.70
2018-09-23T09:51:57.214Z,11.60
2018-09-23T09:53:01.112Z,11.60
2018-09-23T09:54:04.835Z,11.60
2018-09-23T09:55:08.697Z,11.60
2018-09-23T09:56:12.847Z,11.60
2018-09-23T09:57:16.467Z,11.60
2018-09-23T09:58:20.182Z,11.60
2018-09-23T09:59:23.893Z,11.60
2018-09-23T10:00:33.851Z,11.60
2018-09-23T10:01:37.446Z,11.50
2018-09-23T10:02:41.285Z,11.50
2018-09-23T10:03:46.283Z,11.50
2018-09-23T10:04:49.882Z,11.40
2018-09-23T10:05:53.592Z,11.40
2018-09-23T10:06:57.143Z,11.40
2018-09-23T10:08:01.056Z,11.30
2018-09-23T10:09:06.547Z,11.20
2018-09-23T10:10:10.409Z,11.20
2018-09-23T10:11:14.141Z,11.20
2018-09-23T10:12:17.863Z,11.20
2018-09-23T10:13:21.550Z,11.10
2018-09-23T10:14:25.271Z,11.10
2018-09-23T10:15:29.057Z,11.10
2018-09-23T10:16:32.892Z,11.10
2018-09-23T10:17:36.792Z,11.10
2018-09-23T10:18:40.468Z,11.20
2018-09-23T10:19:44.056Z,11.10
2018-09-23T10:20:47.575Z,11.20
2018-09-23T10:21:51.381Z,11.20
2018-09-23T10:22:55.387Z,11.20
2018-09-23T10:23:59.215Z,11.20
2018-09-23T10:25:02.901Z,11.20
2018-09-23T10:26:06.683Z,11.10
2018-09-23T10:27:10.384Z,11.20
2018-09-23T10:28:14.110Z,11.10
2018-09-23T10:29:17.798Z,11.10
2018-09-23T10:30:21.569Z,11.00
2018-09-23T10:31:25.337Z,11.00
2018-09-23T10:32:29.847Z,11.00
2018-09-23T10:33:33.666Z,10.90
2018-09-23T10:34:38.249Z,10.90
2018-09-23T10:35:42.028Z,10.90
2018-09-23T10:36:45.988Z,10.90
2018-09-23T10:37:49.774Z,11.00
2018-09-23T10:38:53.322Z,11.00
2018-09-23T10:39:56.897Z,11.00
2018-09-23T10:41:00.693Z,11.00
2018-09-23T10:42:04.558Z,11.00
2018-09-23T10:43:08.591Z,11.00
2018-09-23T10:44:12.372Z,10.90
2018-09-23T10:45:16.318Z,10.90
2018-09-23T10:46:20.053Z,11.00
2018-09-23T10:47:23.629Z,11.00
2018-09-23T10:48:27.508Z,11.00
2018-09-23T10:49:31.165Z,11.00
2018-09-23T10:50:35.733Z,10.90
2018-09-23T10:51:39.496Z,10.90
2018-09-23T10:52:43.151Z,10.90
2018-09-23T10:53:47.409Z,10.90
2018-09-23T10:54:51.156Z,10.90
2018-09-23T10:55:54.781Z,10.90
2018-09-23T10:56:58.713Z,10.90
2018-09-23T10:58:02.421Z,10.90
2018-09-23T10:59:06.077Z,10.90
2018-09-23T11:00:10.014Z,10.90
2018-09-23T11:01:14.040Z,10.90
2018-09-23T11:02:17.685Z,10.80
2018-09-23T11:03:21.348Z,10.80
2018-09-23T11:04:25.650Z,10.80
2018-09-23T11:05:29.273Z,10.80
2018-09-23T11:06:33.043Z,10.80
2018-09-23T11:07:36.625Z,10.70
2018-09-23T11:08:40.331Z,10.70
2018-09-23T11:09:44.019Z,10.70
2018-09-23T11:10:47.651Z,10.60
2018-09-23T11:11:51.522Z,10.70
2018-09-23T11:12:56.418Z,10.70
2018-09-23T11:14:02.072Z,10.70
2018-09-23T11:15:05.981Z,10.60
2018-09-23T11:16:09.600Z,10.60
2018-09-23T11:17:13.341Z,10.60
2018-09-23T11:18:16.950Z,10.60
2018-09-23T11:19:20.707Z,10.60
2018-09-23T11:20:24.261Z,10.60
2018-09-23T11:21:27.949Z,10.60
2018-09-23T11:22:31.600Z,10.60
2018-09-23T11:23:35.173Z,10.60
2018-09-23T11:24:39.996Z,10.60
2018-09-23T11:25:43.733Z,10.70
2018-09-23T11:26:48.079Z,10.60
2018-09-23T11:27:53.001Z,10.60
2018-09-23T11:28:57.510Z,10.50
2018-09-23T11:30:01.416Z,10.60
2018-09-23T11:31:05.645Z,10.60
2018-09-23T11:32:09.591Z,10.60
2018-09-23T11:33:13.454Z,10.60
2018-09-23T11:34:16.980Z,10.60
2018-09-23T11:35:20.638Z,10.70
2018-09-23T11:36:24.582Z,10.60
2018-09-23T11:37:28.350Z,10.60
2018-09-23T11:38:32.057Z,10.60
2018-09-23T11:39:36.068Z,10.60
2018-09-23T11:40:39.942Z,10.60
2018-09-23T11:41:43.803Z,10.60
2018-09-23T11:42:47.756Z,10.60
2018-09-23T11:43:52.144Z,10.60
2018-09-23T11:44:55.840Z,10.70
2018-09-23T11:45:59.506Z,10.60
2018-09-23T11:47:03.156Z,10.70
2018-09-23T11:48:07.133Z,10.70
2018-09-23T11:49:11.261Z,10.70
2018-09-23T11:50:14.911Z,10.70
2018-09-23T11:51:18.671Z,10.70
2018-09-23T11:52:22.283Z,10.80
2018-09-23T11:53:26.119Z,10.70
2018-09-23T11:54:29.994Z,10.70
2018-09-23T11:55:33.953Z,10.60
2018-09-23T11:56:37.781Z,10.60
2018-09-23T11:57:42.073Z,10.60
2018-09-23T11:58:46.412Z,10.50
2018-09-23T11:59:50.056Z,10.50
2018-09-23T12:00:53.643Z,10.40
2018-09-23T12:01:59.191Z,10.40
2018-09-23T12:03:02.950Z,10.40
2018-09-23T12:04:06.611Z,10.40
2018-09-23T12:05:10.480Z,10.40
2018-09-23T12:06:14.540Z,10.30
2018-09-23T12:07:18.718Z,10.40
2018-09-23T12:08:22.409Z,10.30
2018-09-23T12:09:26.104Z,10.40
2018-09-23T12:10:29.920Z,10.30
2018-09-23T12:11:34.580Z,10.40
2018-09-23T12:12:38.170Z,10.30
2018-09-23T12:13:41.957Z,10.30
2018-09-23T12:14:45.566Z,10.30
2018-09-23T12:15:49.300Z,10.30
2018-09-23T12:16:53.079Z,10.30
2018-09-23T12:17:57.019Z,10.30
2018-09-23T12:19:00.822Z,10.30
2018-09-23T12:20:04.852Z,10.30
2018-09-23T12:21:08.510Z,10.40
2018-09-23T12:22:12.407Z,10.40
2018-09-23T12:23:16.491Z,10.30
2018-09-23T12:24:20.463Z,10.30
2018-09-23T12:25:24.200Z,10.30
2018-09-23T12:26:28.142Z,10.30
2018-09-23T12:27:32.590Z,10.20
2018-09-23T12:28:36.632Z,10.20
2018-09-23T12:29:40.224Z,10.30
2018-09-23T12:30:44.115Z,10.20
2018-09-23T12:31:47.902Z,10.20
2018-09-23T12:32:51.805Z,10.20
2018-09-23T12:33:55.402Z,10.20
2018-09-23T12:34:59.090Z,10.30
2018-09-23T12:36:05.192Z,10.20
2018-09-23T12:37:08.803Z,10.20
2018-09-23T12:38:12.682Z,10.20
2018-09-23T12:39:16.312Z,10.30
2018-09-23T12:40:19.939Z,10.30
2018-09-23T12:41:23.611Z,10.30
2018-09-23T12:42:27.966Z,10.30
2018-09-23T12:43:31.687Z,10.40
2018-09-23T12:44:36.501Z,10.40
2018-09-23T12:45:40.299Z,10.40
2018-09-23T12:46:44.619Z,10.40
2018-09-23T12:47:48.238Z,10.40
2018-09-23T12:48:52.046Z,10.40
2018-09-23T12:49:56.349Z,10.30
2018-09-23T12:51:00.579Z,10.30
2018-09-23T12:52:04.293Z,10.20
2018-09-23T12:53:08.500Z,10.20
2018-09-23T12:54:13.537Z,10.20
2018-09-23T12:55:17.697Z,10.20
2018-09-23T12:56:21.573Z,10.10
2018-09-23T12:57:26.222Z,10.10
2018-09-23T12:58:30.530Z,10.10
2018-09-23T12:59:34.311Z,10.10
2018-09-23T13:00:38.096Z,10.10
2018-09-23T13:01:42.148Z,10.10
2018-09-23T13:02:46.131Z,10.10
2018-09-23T13:03:49.903Z,10.20
2018-09-23T13:04:53.730Z,10.20
2018-09-23T13:07:01.383Z,10.20
2018-09-23T13:08:05.817Z,10.30
2018-09-23T13:09:11.070Z,10.30
2018-09-23T13:10:15.253Z,10.30
2018-09-23T13:11:19.066Z,10.30
2018-09-23T13:12:23.427Z,10.30
2018-09-23T13:13:27.912Z,10.40
2018-09-23T13:14:31.614Z,10.40
2018-09-23T13:15:35.259Z,10.40
2018-09-23T13:16:39.559Z,10.40
2018-09-23T13:17:43.142Z,10.40
2018-09-23T13:18:46.949Z,10.40
2018-09-23T13:19:50.942Z,10.40
2018-09-23T13:20:54.675Z,10.30
2018-09-23T13:21:58.318Z,10.30
2018-09-23T13:23:02.598Z,10.30
2018-09-23T13:24:07.014Z,10.30
2018-09-23T13:25:12.565Z,10.30
2018-09-23T13:26:16.522Z,10.20
2018-09-23T13:27:20.105Z,10.20
2018-09-23T13:28:24.860Z,10.20
2018-09-23T13:29:29.115Z,10.20
2018-09-23T13:30:34.383Z,10.10
2018-09-23T13:31:39.044Z,10.10
2018-09-23T13:32:43.010Z,10.00
2018-09-23T13:33:46.803Z,10.00
2018-09-23T13:34:50.604Z,10.00
2018-09-23T13:35:54.673Z,10.10
2018-09-23T13:36:58.878Z,10.00
2018-09-23T13:38:03.317Z,10.10
2018-09-23T13:39:08.070Z,10.10
2018-09-23T13:40:11.959Z,10.10
2018-09-23T13:41:15.864Z,10.10
2018-09-23T13:43:25.313Z,10.20
2018-09-23T13:44:29.070Z,10.10
2018-09-23T13:45:32.814Z,10.10
2018-09-23T13:46:36.845Z,10.10